Temp: 15.9°C   Baro: 1011.9mb
  Wind: 9.0mph   Dir: NW (314°)
  Rain: 2.0mm (0.0mm/hr)
  Solar: 232W/m2  Hum: 70%
 
Bath Spa Weather Station Historical Data
Daily Summary for April 5, 2020 Units:  Metric    English   Both
Daily Weekly Monthly Yearly Custom
  High: Low: Average:
Temperature: 16.8 °C 14.4 °C 15.7 °C
Dew Point: 14.9 °C 10.2 °C 13.3 °C
Humidity: 93% 68% 87%
Wind Speed: 25.7km/h 7.1km/h 15.9km/h
Wind Gust: 46.7km/h - -
Wind- - West
Pressure: 1011.7 hPa 1008.4 hPa -
Precipitation: 2.03 mm    
Historical Graphs
 
 
Tabular Data for April 5, 2020
Time Temperature Dew Point Pressure Wind Wind Speed Wind Gust Humidity Rainfall Rate (Hourly) solar
00:04 16.4 °C 14.4 °C 1009.7 hPa WSW 15.1 km/h 27.4 km/h 88% 0 mm 0 W/m2
00:09 16.4 °C 14.4 °C 1009.7 hPa SW 17.7 km/h 25.7 km/h 88% 0 mm 0 W/m2
00:14 16.4 °C 14.4 °C 1009.7 hPa SW 13.2 km/h 22.5 km/h 88% 0 mm 0 W/m2
00:19 16.5 °C 14.5 °C 1009.7 hPa SW 21.4 km/h 35.4 km/h 88% 0 mm 0 W/m2
00:24 16.5 °C 14.5 °C 1009.7 hPa WSW 12.4 km/h 27.4 km/h 88% 0 mm 0 W/m2
00:29 16.6 °C 14.6 °C 1009.7 hPa WSW 10.6 km/h 24.1 km/h 88% 0 mm 0 W/m2
00:34 16.6 °C 14.6 °C 1009.4 hPa WSW 14.8 km/h 25.7 km/h 88% 0 mm 0 W/m2
00:39 16.6 °C 14.6 °C 1009.4 hPa SW 10.6 km/h 27.4 km/h 88% 0 mm 0 W/m2
00:44 16.7 °C 14.5 °C 1009 hPa SW 10.1 km/h 24.1 km/h 87.2% 0 mm 0 W/m2
00:49 16.7 °C 14.6 °C 1009 hPa WSW 15.3 km/h 24.1 km/h 87.5% 0 mm 0 W/m2
00:54 16.7 °C 14.7 °C 1009 hPa SW 15.4 km/h 22.5 km/h 87.8% 0 mm 0 W/m2
00:59 16.7 °C 14.7 °C 1009 hPa SW 12.2 km/h 27.4 km/h 88% 0 mm 0 W/m2
01:04 16.7 °C 14.7 °C 1009 hPa SW 19.3 km/h 33.8 km/h 88% 0 mm 0 W/m2
01:09 16.7 °C 14.7 °C 1009 hPa SW 11.6 km/h 27.4 km/h 88% 0 mm 0 W/m2
01:14 16.7 °C 14.7 °C 1009 hPa SW 14.8 km/h 32.2 km/h 88% 0 mm 0 W/m2
01:19 16.8 °C 14.8 °C 1009 hPa SW 18.2 km/h 30.6 km/h 88% 0 mm 0 W/m2
01:24 16.8 °C 14.8 °C 1009 hPa WSW 17.1 km/h 32.2 km/h 88% 0 mm 0 W/m2
01:29 16.8 °C 14.8 °C 1008.7 hPa WSW 11.9 km/h 25.7 km/h 88% 0 mm 0 W/m2
01:34 16.8 °C 14.8 °C 1008.7 hPa SW 17.4 km/h 25.7 km/h 88% 0 mm 0 W/m2
01:39 16.8 °C 14.8 °C 1008.7 hPa WSW 15 km/h 27.4 km/h 88% 0 mm 0 W/m2
01:44 16.7 °C 14.7 °C 1008.7 hPa WSW 16.9 km/h 25.7 km/h 88% 0 mm 0 W/m2
01:49 16.7 °C 14.8 °C 1008.7 hPa SW 16.1 km/h 29 km/h 88.8% 0 mm 0 W/m2
01:54 16.6 °C 14.7 °C 1008.7 hPa WSW 13.8 km/h 27.4 km/h 89% 0 mm 0 W/m2
01:59 16.4 °C 14.6 °C 1008.7 hPa WSW 9.5 km/h 22.5 km/h 89% 0 mm 0 W/m2
02:04 16.3 °C 14.7 °C 1008.7 hPa SW 12.9 km/h 22.5 km/h 90% 0 mm 0 W/m2
02:09 16.2 °C 14.6 °C 1008.7 hPa WSW 9.2 km/h 17.7 km/h 90% 0.25 mm 0 W/m2
02:14 16.1 °C 14.6 °C 1008.7 hPa WSW 12.6 km/h 22.5 km/h 90.8% 0.51 mm 0 W/m2
02:19 15.9 °C 14.4 °C 1008.7 hPa SW 8 km/h 17.7 km/h 91% 0.51 mm 0 W/m2
02:24 15.9 °C 14.4 °C 1008.7 hPa SW 10.3 km/h 20.9 km/h 91% 0.51 mm 0 W/m2
02:29 15.9 °C 14.6 °C 1008.7 hPa WSW 7.1 km/h 20.9 km/h 91.8% 0.51 mm 0 W/m2
02:34 15.9 °C 14.7 °C 1008.7 hPa SW 9.3 km/h 20.9 km/h 92% 0.51 mm 0 W/m2
02:39 16 °C 14.7 °C 1008.7 hPa SW 9.3 km/h 20.9 km/h 92% 0.51 mm 0 W/m2
02:44 16.1 °C 14.8 °C 1008.4 hPa WSW 15.8 km/h 24.1 km/h 92% 0.51 mm 0 W/m2
02:49 16.1 °C 14.8 °C 1008.4 hPa SW 10.9 km/h 20.9 km/h 92% 0.51 mm 0 W/m2
02:54 16.1 °C 14.8 °C 1008.4 hPa WNW 11.3 km/h 24.1 km/h 92% 0.51 mm 0 W/m2
02:59 16.1 °C 14.9 °C 1008.4 hPa WSW 14.5 km/h 24.1 km/h 92.6% 0.51 mm 0 W/m2
03:04 16.1 °C 14.8 °C 1008.4 hPa West 12.2 km/h 29 km/h 92.4% 0.51 mm 0 W/m2
03:09 16.1 °C 14.8 °C 1008.4 hPa West 15.8 km/h 24.1 km/h 92% 0.51 mm 0 W/m2
03:14 16.1 °C 14.8 °C 1008.4 hPa West 10.1 km/h 20.9 km/h 92% 0.51 mm 0 W/m2
03:19 16.1 °C 14.8 °C 1008.4 hPa WSW 13.5 km/h 29 km/h 92% 0.51 mm 0 W/m2
03:24 16.2 °C 14.9 °C 1008.4 hPa West 14.2 km/h 29 km/h 92% 0.25 mm 0 W/m2
03:29 16.2 °C 14.9 °C 1008.4 hPa WSW 11.1 km/h 22.5 km/h 92% 0.25 mm 0 W/m2
03:34 16.2 °C 14.8 °C 1008.4 hPa West 12.2 km/h 22.5 km/h 91.2% 0.25 mm 0 W/m2
03:39 16.2 °C 14.7 °C 1008.4 hPa West 15.4 km/h 24.1 km/h 91% 0.25 mm 0 W/m2
03:44 16.2 °C 14.7 °C 1008.4 hPa West 12.9 km/h 22.5 km/h 91% 0.25 mm 0 W/m2
03:49 16.2 °C 14.7 °C 1008.4 hPa WSW 14.2 km/h 24.1 km/h 91% 0.25 mm 0 W/m2
03:54 16.2 °C 14.7 °C 1008.4 hPa West 17.1 km/h 29 km/h 91% 0.25 mm 0 W/m2
03:59 16.2 °C 14.7 °C 1008.4 hPa West 15.4 km/h 25.7 km/h 91% 0.25 mm 0 W/m2
04:04 16.1 °C 14.6 °C 1008.4 hPa West 12.1 km/h 27.4 km/h 91% 0.25 mm 0 W/m2
04:09 16.1 °C 14.6 °C 1008.4 hPa West 13.2 km/h 24.1 km/h 91% 0.25 mm 0 W/m2
04:13 16 °C 14.5 °C 1008.4 hPa West 14.2 km/h 24.1 km/h 91% 0.25 mm 0 W/m2
04:19 15.9 °C 14.5 °C 1008.4 hPa West 9 km/h 22.5 km/h 91.4% 0.25 mm 0 W/m2
04:29 15.9 °C 14.6 °C 1008.4 hPa West 8.5 km/h 20.9 km/h 92% 0 mm 0 W/m2
04:34 15.8 °C 14.6 °C 1008.4 hPa WNW 11.3 km/h 20.9 km/h 92% 0 mm 0 W/m2
04:39 15.8 °C 14.5 °C 1008.4 hPa WNW 7.4 km/h 16.1 km/h 92% 0.25 mm 0 W/m2
04:44 15.8 °C 14.5 °C 1008.4 hPa West 9 km/h 16.1 km/h 92% 0.51 mm 0 W/m2
04:49 15.7 °C 14.5 °C 1008.4 hPa WNW 10.9 km/h 17.7 km/h 92.6% 0.51 mm 0 W/m2
04:54 15.6 °C 14.5 °C 1008.4 hPa WNW 11.6 km/h 16.1 km/h 93% 1.02 mm 0 W/m2
04:59 15.6 °C 14.5 °C 1008.4 hPa WNW 21.2 km/h 32.2 km/h 93% 1.02 mm 0 W/m2
05:04 15.5 °C 14.4 °C 1008.4 hPa WNW 17.4 km/h 32.2 km/h 93% 1.02 mm 0 W/m2
05:09 15.4 °C 14.3 °C 1008.4 hPa WNW 17.1 km/h 29 km/h 93% 1.02 mm 0 W/m2
05:14 15.3 °C 14.2 °C 1008.7 hPa WNW 18.3 km/h 33.8 km/h 93% 1.02 mm 5 W/m2
05:19 15.3 °C 14.2 °C 1008.7 hPa West 14.2 km/h 33.8 km/h 93% 1.02 mm 11 W/m2
05:24 15.3 °C 14.2 °C 1008.4 hPa West 18.7 km/h 32.2 km/h 93% 1.27 mm 11 W/m2
05:29 15.3 °C 14.2 °C 1008.4 hPa WSW 19.6 km/h 30.6 km/h 93% 1.27 mm 12 W/m2
05:39 15.4 °C 14.2 °C 1008.7 hPa West 20.1 km/h 45.1 km/h 92% 1.02 mm 16 W/m2
05:44 15.4 °C 13.9 °C 1008.7 hPa West 22.7 km/h 38.6 km/h 91% 1.02 mm 23 W/m2
05:49 15.4 °C 13.9 °C 1008.7 hPa West 17.7 km/h 33.8 km/h 91% 0.76 mm 19 W/m2
05:54 15.4 °C 13.8 °C 1008.7 hPa West 23.2 km/h 38.6 km/h 90.6% 0.51 mm 19 W/m2
05:59 15.3 °C 13.7 °C 1008.7 hPa West 12.9 km/h 37 km/h 90% 0.25 mm 25 W/m2
06:04 15.2 °C 13.7 °C 1009 hPa NW 24.5 km/h 46.7 km/h 90.2% 0.25 mm 40 W/m2
06:09 14.8 °C 13.3 °C 1009 hPa West 22.5 km/h 46.7 km/h 90.8% 0.25 mm 28 W/m2
06:14 14.7 °C 13.2 °C 1009 hPa WNW 18.7 km/h 46.7 km/h 91% 0.25 mm 40 W/m2
06:19 14.6 °C 13.1 °C 1009 hPa WNW 20 km/h 38.6 km/h 91% 0.25 mm 28 W/m2
06:24 14.6 °C 13.1 °C 1009 hPa WNW 23.8 km/h 41.8 km/h 91% 0 mm 35 W/m2
06:29 14.6 °C 13.1 °C 1009 hPa WNW 18.5 km/h 37 km/h 91% 0 mm 35 W/m2
06:34 14.6 °C 12.9 °C 1009.4 hPa WNW 20.6 km/h 41.8 km/h 90.5% 0 mm 54 W/m2
06:39 14.5 °C 12.9 °C 1009.4 hPa WNW 23.3 km/h 33.8 km/h 90% 0 mm 72 W/m2
06:44 14.6 °C 12.8 °C 1009.4 hPa West 18.3 km/h 37 km/h 89.4% 0 mm 69 W/m2
06:49 14.5 °C 12.7 °C 1009.4 hPa WNW 18.2 km/h 33.8 km/h 88.6% 0 mm 69 W/m2
06:54 14.5 °C 12.5 °C 1009.7 hPa WNW 12.9 km/h 25.7 km/h 88% 0 mm 76 W/m2
06:59 14.4 °C 12.4 °C 1009.7 hPa West 13.2 km/h 37 km/h 87.8% 0 mm 88 W/m2
07:04 14.4 °C 12.3 °C 1009.7 hPa West 13.2 km/h 37 km/h 87% 0 mm 81 W/m2
07:09 14.4 °C 12.3 °C 1009.7 hPa WNW 14.5 km/h 38.6 km/h 87% 0 mm 116 W/m2
07:19 14.6 °C 12.3 °C 1009.7 hPa WNW 16.6 km/h 35.4 km/h 86% 0 mm 97 W/m2
07:24 14.6 °C 12.3 °C 1009.7 hPa WNW 17.1 km/h 41.8 km/h 86% 0 mm 102 W/m2
07:29 14.7 °C 12.3 °C 1009.7 hPa West 12.9 km/h 37 km/h 86% 0 mm 105 W/m2
07:34 14.7 °C 12.3 °C 1010 hPa West 14.2 km/h 35.4 km/h 86% 0 mm 137 W/m2
07:44 14.7 °C 12.3 °C 1010 hPa WNW 13.5 km/h 33.8 km/h 85.4% 0 mm 156 W/m2
07:49 14.7 °C 12.3 °C 1010 hPa West 19.3 km/h 33.8 km/h 85.4% 0 mm 134 W/m2
07:54 14.7 °C 12.2 °C 1010 hPa West 21.2 km/h 33.8 km/h 85% 0 mm 176 W/m2
07:59 14.8 °C 12.3 °C 1010 hPa WNW 16.4 km/h 32.2 km/h 85% 0 mm 411 W/m2
08:04 15 °C 12.3 °C 1010 hPa West 16.7 km/h 32.2 km/h 84.4% 0 mm 230 W/m2
08:09 14.9 °C 12.2 °C 1010 hPa West 18.7 km/h 43.5 km/h 84% 0 mm 190 W/m2
08:14 15.1 °C 12.4 °C 1010 hPa West 18.3 km/h 32.2 km/h 84% 0 mm 464 W/m2
08:19 15.2 °C 12.5 °C 1010 hPa WNW 19 km/h 29 km/h 84% 0 mm 248 W/m2
08:24 15.1 °C 12.2 °C 1010 hPa WNW 17.7 km/h 30.6 km/h 83% 0 mm 172 W/m2
08:29 14.9 °C 12.1 °C 1010.4 hPa West 22.5 km/h 41.8 km/h 83.4% 0 mm 220 W/m2
08:34 15 °C 12 °C 1010.4 hPa WNW 19.3 km/h 41.8 km/h 82.4% 0 mm 199 W/m2
08:39 14.9 °C 12 °C 1010.4 hPa WNW 18.3 km/h 43.5 km/h 82.8% 0 mm 246 W/m2
08:44 15.1 °C 12 °C 1010.4 hPa WNW 21.4 km/h 43.5 km/h 82% 0 mm 269 W/m2
08:49 15.1 °C 12 °C 1010.4 hPa WNW 17.4 km/h 33.8 km/h 82% 0 mm 156 W/m2
08:54 15 °C 12 °C 1010.7 hPa West 17.1 km/h 33.8 km/h 82% 0 mm 200 W/m2
08:59 14.8 °C 11.8 °C 1010.7 hPa West 18.3 km/h 32.2 km/h 81.6% 0 mm 169 W/m2
09:04 14.9 °C 11.6 °C 1010.7 hPa West 21.2 km/h 35.4 km/h 80.6% 0 mm 603 W/m2
09:09 15.2 °C 11.6 °C 1010.7 hPa West 25.7 km/h 41.8 km/h 78.8% 0 mm 626 W/m2
09:14 15.3 °C 11.3 °C 1011.1 hPa NW 18 km/h 40.2 km/h 77% 0 mm 216 W/m2
09:19 15.2 °C 11 °C 1010.7 hPa West 16.4 km/h 46.7 km/h 76% 0 mm 253 W/m2
09:24 15.3 °C 11.1 °C 1010.7 hPa WNW 19.3 km/h 32.2 km/h 76% 0 mm 290 W/m2
09:29 15.2 °C 11.2 °C 1011.1 hPa WNW 16.1 km/h 38.6 km/h 76.6% 0 mm 179 W/m2
09:34 15.2 °C 11.3 °C 1011.1 hPa NW 19 km/h 38.6 km/h 77.6% 0 mm 227 W/m2
09:39 15.2 °C 10.7 °C 1011.4 hPa West 20 km/h 40.2 km/h 74.4% 0 mm 640 W/m2
09:44 15.5 °C 10.6 °C 1011.1 hPa NW 19.2 km/h 33.8 km/h 72.6% 0 mm 605 W/m2
09:49 15.8 °C 10.7 °C 1011.1 hPa WNW 19.3 km/h 37 km/h 71.4% 0 mm 605 W/m2
09:54 15.6 °C 10.6 °C 1011.4 hPa WNW 13.2 km/h 27.4 km/h 72% 0 mm 250 W/m2
09:59 15.5 °C 10.3 °C 1011.4 hPa WNW 16.4 km/h 29 km/h 71.2% 0 mm 315 W/m2
10:04 15.5 °C 10.3 °C 1011.4 hPa West 20.3 km/h 27.4 km/h 71% 0 mm 276 W/m2
10:09 15.4 °C 10.3 °C 1011.4 hPa WNW 18.8 km/h 40.2 km/h 71.4% 0 mm 202 W/m2
10:14 15.3 °C 10.5 °C 1011.4 hPa WNW 15.8 km/h 40.2 km/h 72.8% 0 mm 297 W/m2
10:19 15.4 °C 10.6 °C 1011.4 hPa WNW 20 km/h 33.8 km/h 73% 0 mm 749 W/m2
10:24 15.8 °C 10.8 °C 1011.4 hPa West 17.7 km/h 33.8 km/h 72% 0 mm 823 W/m2
10:29 16.2 °C 10.8 °C 1011.4 hPa West 19 km/h 30.6 km/h 70.6% 0 mm 823 W/m2
10:34 16.2 °C 10.2 °C 1011.7 hPa WNW 20.1 km/h 30.6 km/h 68% 0 mm 810 W/m2
10:39 16.2 °C 10.4 °C 1011.7 hPa WNW 17.1 km/h 29 km/h 68.6% 0 mm 309 W/m2
10:44 16.1 °C 10.2 °C 1011.7 hPa West 20 km/h 38.6 km/h 68.4% 0 mm 445 W/m2
Bath Spa Weather
Compliments of Weather Underground - 2 mb